sensor_id;sensor_type;location;lat;lon;timestamp;P1;durP1;ratioP1;P2;durP2;ratioP2
45011;SDS011;63444;48.148;11.542;2023-08-01T00:00:15;3.25;;;2.40;;
45011;SDS011;63444;48.148;11.542;2023-08-01T00:02:41;3.10;;;2.60;;
45011;SDS011;63444;48.148;11.542;2023-08-01T00:05:07;2.75;;;2.42;;
45011;SDS011;63444;48.148;11.542;2023-08-01T00:07:33;2.88;;;2.20;;
45011;SDS011;63444;48.148;11.542;2023-08-01T00:09:59;4.85;;;2.80;;
45011;SDS011;63444;48.148;11.542;2023-08-01T00:12:24;3.42;;;2.47;;
45011;SDS011;63444;48.148;11.542;2023-08-01T00:14:52;2.58;;;2.35;;
45011;SDS011;63444;48.148;11.542;2023-08-01T00:17:17;2.95;;;2.63;;
45011;SDS011;63444;48.148;11.542;2023-08-01T00:19:43;3.08;;;2.38;;
45011;SDS011;63444;48.148;11.542;2023-08-01T00:22:08;2.45;;;2.25;;
45011;SDS011;63444;48.148;11.542;2023-08-01T00:24:35;4.95;;;2.63;;
45011;SDS011;63444;48.148;11.542;2023-08-01T00:27:01;2.95;;;2.45;;
45011;SDS011;63444;48.148;11.542;2023-08-01T00:29:26;2.47;;;2.28;;
45011;SDS011;63444;48.148;11.542;2023-08-01T00:31:52;2.83;;;2.50;;
45011;SDS011;63444;48.148;11.542;2023-08-01T00:34:17;3.55;;;2.40;;
45011;SDS011;63444;48.148;11.542;2023-08-01T00:36:43;3.20;;;2.67;;
45011;SDS011;63444;48.148;11.542;2023-08-01T00:39:08;3.13;;;2.70;;
45011;SDS011;63444;48.148;11.542;2023-08-01T00:41:34;3.45;;;2.47;;
45011;SDS011;63444;48.148;11.542;2023-08-01T00:44:00;2.55;;;2.33;;
45011;SDS011;63444;48.148;11.542;2023-08-01T00:46:25;2.47;;;2.28;;
45011;SDS011;63444;48.148;11.542;2023-08-01T00:48:51;3.47;;;2.15;;
45011;SDS011;63444;48.148;11.542;2023-08-01T00:51:18;2.75;;;2.50;;
45011;SDS011;63444;48.148;11.542;2023-08-01T00:53:44;3.50;;;2.67;;
45011;SDS011;63444;48.148;11.542;2023-08-01T00:56:11;2.70;;;2.30;;
45011;SDS011;63444;48.148;11.542;2023-08-01T00:58:37;4.07;;;2.60;;
45011;SDS011;63444;48.148;11.542;2023-08-01T01:01:02;2.60;;;2.40;;
45011;SDS011;63444;48.148;11.542;2023-08-01T01:03:28;2.90;;;2.50;;
45011;SDS011;63444;48.148;11.542;2023-08-01T01:06:02;3.42;;;2.72;;
45011;SDS011;63444;48.148;11.542;2023-08-01T01:08:30;5.38;;;2.45;;
45011;SDS011;63444;48.148;11.542;2023-08-01T01:10:56;3.25;;;2.30;;
45011;SDS011;63444;48.148;11.542;2023-08-01T01:13:21;3.25;;;2.55;;
45011;SDS011;63444;48.148;11.542;2023-08-01T01:15:47;2.88;;;2.58;;
45011;SDS011;63444;48.148;11.542;2023-08-01T01:18:13;2.97;;;2.60;;
45011;SDS011;63444;48.148;11.542;2023-08-01T01:20:38;3.60;;;2.70;;
45011;SDS011;63444;48.148;11.542;2023-08-01T01:23:04;4.35;;;2.67;;
45011;SDS011;63444;48.148;11.542;2023-08-01T01:25:31;2.70;;;2.50;;
45011;SDS011;63444;48.148;11.542;2023-08-01T01:27:57;2.95;;;2.65;;
45011;SDS011;63444;48.148;11.542;2023-08-01T01:30:24;2.78;;;2.53;;
45011;SDS011;63444;48.148;11.542;2023-08-01T01:32:51;3.50;;;2.72;;
45011;SDS011;63444;48.148;11.542;2023-08-01T01:35:18;2.80;;;2.50;;
45011;SDS011;63444;48.148;11.542;2023-08-01T01:37:43;3.30;;;2.50;;
45011;SDS011;63444;48.148;11.542;2023-08-01T01:40:09;3.28;;;2.53;;
45011;SDS011;63444;48.148;11.542;2023-08-01T01:42:35;4.15;;;2.60;;
45011;SDS011;63444;48.148;11.542;2023-08-01T01:45:01;3.30;;;2.60;;
45011;SDS011;63444;48.148;11.542;2023-08-01T01:47:27;2.75;;;2.42;;
45011;SDS011;63444;48.148;11.542;2023-08-01T01:49:53;2.85;;;2.60;;
45011;SDS011;63444;48.148;11.542;2023-08-01T01:52:18;3.97;;;2.75;;
45011;SDS011;63444;48.148;11.542;2023-08-01T01:54:56;2.92;;;2.65;;
45011;SDS011;63444;48.148;11.542;2023-08-01T01:57:22;2.70;;;2.50;;
45011;SDS011;63444;48.148;11.542;2023-08-01T01:59:47;3.55;;;2.80;;
45011;SDS011;63444;48.148;11.542;2023-08-01T02:02:13;2.60;;;2.40;;
45011;SDS011;63444;48.148;11.542;2023-08-01T02:04:39;2.72;;;2.40;;
45011;SDS011;63444;48.148;11.542;2023-08-01T02:07:05;3.20;;;2.75;;
45011;SDS011;63444;48.148;11.542;2023-08-01T02:09:30;3.67;;;3.00;;
45011;SDS011;63444;48.148;11.542;2023-08-01T02:11:56;2.80;;;2.50;;
45011;SDS011;63444;48.148;11.542;2023-08-01T02:14:21;3.38;;;2.53;;
45011;SDS011;63444;48.148;11.542;2023-08-01T02:16:47;2.97;;;2.58;;
45011;SDS011;63444;48.148;11.542;2023-08-01T02:19:13;3.05;;;2.50;;
45011;SDS011;63444;48.148;11.542;2023-08-01T02:21:38;3.03;;;2.72;;
45011;SDS011;63444;48.148;11.542;2023-08-01T02:24:04;2.83;;;2.53;;
45011;SDS011;63444;48.148;11.542;2023-08-01T02:26:29;2.88;;;2.58;;
45011;SDS011;63444;48.148;11.542;2023-08-01T02:28:55;3.00;;;2.65;;
45011;SDS011;63444;48.148;11.542;2023-08-01T02:31:21;3.00;;;2.70;;
45011;SDS011;63444;48.148;11.542;2023-08-01T02:33:46;3.55;;;3.00;;
45011;SDS011;63444;48.148;11.542;2023-08-01T02:36:12;3.30;;;2.80;;
45011;SDS011;63444;48.148;11.542;2023-08-01T02:38:37;2.63;;;2.42;;
45011;SDS011;63444;48.148;11.542;2023-08-01T02:41:03;2.90;;;2.60;;
45011;SDS011;63444;48.148;11.542;2023-08-01T02:43:29;2.90;;;2.50;;
45011;SDS011;63444;48.148;11.542;2023-08-01T02:45:54;2.80;;;2.55;;
45011;SDS011;63444;48.148;11.542;2023-08-01T02:48:20;3.10;;;2.53;;
45011;SDS011;63444;48.148;11.542;2023-08-01T02:50:45;3.10;;;2.80;;
45011;SDS011;63444;48.148;11.542;2023-08-01T02:53:11;3.97;;;2.88;;
45011;SDS011;63444;48.148;11.542;2023-08-01T02:55:36;3.40;;;2.90;;
45011;SDS011;63444;48.148;11.542;2023-08-01T02:58:03;2.80;;;2.53;;
45011;SDS011;63444;48.148;11.542;2023-08-01T03:00:29;3.40;;;2.60;;
45011;SDS011;63444;48.148;11.542;2023-08-01T03:02:56;2.90;;;2.60;;
45011;SDS011;63444;48.148;11.542;2023-08-01T03:05:22;2.90;;;2.60;;
45011;SDS011;63444;48.148;11.542;2023-08-01T03:07:47;3.28;;;2.92;;
45011;SDS011;63444;48.148;11.542;2023-08-01T03:10:13;4.18;;;2.80;;
45011;SDS011;63444;48.148;11.542;2023-08-01T03:12:38;3.83;;;2.90;;
45011;SDS011;63444;48.148;11.542;2023-08-01T03:15:04;3.50;;;2.95;;
45011;SDS011;63444;48.148;11.542;2023-08-01T03:17:33;3.33;;;2.70;;
45011;SDS011;63444;48.148;11.542;2023-08-01T03:19:59;3.00;;;2.70;;
45011;SDS011;63444;48.148;11.542;2023-08-01T03:22:25;3.88;;;3.00;;
45011;SDS011;63444;48.148;11.542;2023-08-01T03:24:50;3.47;;;2.80;;
45011;SDS011;63444;48.148;11.542;2023-08-01T03:27:16;5.45;;;2.88;;
45011;SDS011;63444;48.148;11.542;2023-08-01T03:29:41;3.20;;;2.90;;
45011;SDS011;63444;48.148;11.542;2023-08-01T03:32:07;3.42;;;2.80;;
45011;SDS011;63444;48.148;11.542;2023-08-01T03:34:33;2.83;;;2.58;;
45011;SDS011;63444;48.148;11.542;2023-08-01T03:36:58;3.25;;;2.90;;
45011;SDS011;63444;48.148;11.542;2023-08-01T03:39:24;4.03;;;3.20;;
45011;SDS011;63444;48.148;11.542;2023-08-01T03:41:50;3.15;;;2.83;;
45011;SDS011;63444;48.148;11.542;2023-08-01T03:44:16;3.88;;;3.10;;
45011;SDS011;63444;48.148;11.542;2023-08-01T03:46:42;3.50;;;3.00;;
45011;SDS011;63444;48.148;11.542;2023-08-01T03:49:08;4.30;;;3.00;;
45011;SDS011;63444;48.148;11.542;2023-08-01T03:51:34;3.72;;;3.15;;
45011;SDS011;63444;48.148;11.542;2023-08-01T03:54:00;3.50;;;3.20;;
45011;SDS011;63444;48.148;11.542;2023-08-01T03:56:25;3.38;;;3.08;;
45011;SDS011;63444;48.148;11.542;2023-08-01T03:58:52;4.90;;;3.08;;
45011;SDS011;63444;48.148;11.542;2023-08-01T04:01:18;4.43;;;3.30;;
45011;SDS011;63444;48.148;11.542;2023-08-01T04:03:43;3.97;;;3.00;;
45011;SDS011;63444;48.148;11.542;2023-08-01T04:06:09;4.97;;;3.20;;
45011;SDS011;63444;48.148;11.542;2023-08-01T04:08:35;4.68;;;3.15;;
45011;SDS011;63444;48.148;11.542;2023-08-01T04:11:01;4.47;;;3.50;;
45011;SDS011;63444;48.148;11.542;2023-08-01T04:13:26;4.28;;;3.20;;
45011;SDS011;63444;48.148;11.542;2023-08-01T04:15:52;4.17;;;3.43;;
45011;SDS011;63444;48.148;11.542;2023-08-01T04:18:18;3.83;;;3.00;;
45011;SDS011;63444;48.148;11.542;2023-08-01T04:20:43;6.53;;;3.33;;
45011;SDS011;63444;48.148;11.542;2023-08-01T04:23:09;4.50;;;3.50;;
45011;SDS011;63444;48.148;11.542;2023-08-01T04:25:34;3.33;;;3.00;;
45011;SDS011;63444;48.148;11.542;2023-08-01T04:28:00;5.05;;;3.70;;
45011;SDS011;63444;48.148;11.542;2023-08-01T04:30:26;4.72;;;3.50;;
45011;SDS011;63444;48.148;11.542;2023-08-01T04:32:51;5.13;;;2.97;;
45011;SDS011;63444;48.148;11.542;2023-08-01T04:35:17;4.47;;;3.40;;
45011;SDS011;63444;48.148;11.542;2023-08-01T04:37:42;4.57;;;3.30;;
45011;SDS011;63444;48.148;11.542;2023-08-01T04:40:08;4.97;;;3.50;;
45011;SDS011;63444;48.148;11.542;2023-08-01T04:42:35;6.55;;;4.05;;
45011;SDS011;63444;48.148;11.542;2023-08-01T04:45:01;4.35;;;3.72;;
45011;SDS011;63444;48.148;11.542;2023-08-01T04:47:27;4.90;;;3.40;;
45011;SDS011;63444;48.148;11.542;2023-08-01T04:49:52;4.03;;;3.15;;
45011;SDS011;63444;48.148;11.542;2023-08-01T04:52:18;4.17;;;3.50;;
45011;SDS011;63444;48.148;11.542;2023-08-01T04:54:43;4.15;;;3.40;;
45011;SDS011;63444;48.148;11.542;2023-08-01T04:57:09;4.07;;;3.67;;
45011;SDS011;63444;48.148;11.542;2023-08-01T04:59:34;4.00;;;3.30;;
45011;SDS011;63444;48.148;11.542;2023-08-01T05:02:00;4.73;;;3.30;;
45011;SDS011;63444;48.148;11.542;2023-08-01T05:04:26;6.78;;;3.65;;
45011;SDS011;63444;48.148;11.542;2023-08-01T05:06:51;5.20;;;3.83;;
45011;SDS011;63444;48.148;11.542;2023-08-01T05:09:17;4.50;;;3.77;;
45011;SDS011;63444;48.148;11.542;2023-08-01T05:11:42;4.93;;;3.63;;
45011;SDS011;63444;48.148;11.542;2023-08-01T05:14:08;3.87;;;3.40;;
45011;SDS011;63444;48.148;11.542;2023-08-01T05:16:33;4.63;;;3.90;;
45011;SDS011;63444;48.148;11.542;2023-08-01T05:18:59;5.85;;;3.97;;
45011;SDS011;63444;48.148;11.542;2023-08-01T05:21:24;5.27;;;4.13;;
45011;SDS011;63444;48.148;11.542;2023-08-01T05:23:50;5.23;;;3.70;;
45011;SDS011;63444;48.148;11.542;2023-08-01T05:26:15;4.93;;;3.78;;
45011;SDS011;63444;48.148;11.542;2023-08-01T05:28:41;5.27;;;3.70;;
45011;SDS011;63444;48.148;11.542;2023-08-01T05:31:07;6.27;;;3.70;;
45011;SDS011;63444;48.148;11.542;2023-08-01T05:33:32;4.53;;;3.50;;
45011;SDS011;63444;48.148;11.542;2023-08-01T05:35:58;4.83;;;3.80;;
45011;SDS011;63444;48.148;11.542;2023-08-01T05:38:23;5.30;;;3.70;;
45011;SDS011;63444;48.148;11.542;2023-08-01T05:40:49;6.13;;;4.23;;
45011;SDS011;63444;48.148;11.542;2023-08-01T05:43:15;5.60;;;3.87;;
45011;SDS011;63444;48.148;11.542;2023-08-01T05:45:40;6.90;;;4.30;;
45011;SDS011;63444;48.148;11.542;2023-08-01T05:48:06;4.50;;;3.60;;
45011;SDS011;63444;48.148;11.542;2023-08-01T05:50:32;4.93;;;3.60;;
45011;SDS011;63444;48.148;11.542;2023-08-01T05:52:57;5.03;;;4.20;;
45011;SDS011;63444;48.148;11.542;2023-08-01T05:55:23;4.80;;;3.80;;
45011;SDS011;63444;48.148;11.542;2023-08-01T05:57:48;5.57;;;3.63;;
45011;SDS011;63444;48.148;11.542;2023-08-01T06:00:17;5.73;;;3.63;;
45011;SDS011;63444;48.148;11.542;2023-08-01T06:02:44;4.17;;;3.50;;
45011;SDS011;63444;48.148;11.542;2023-08-01T06:05:09;4.00;;;3.40;;
45011;SDS011;63444;48.148;11.542;2023-08-01T06:07:35;5.10;;;3.20;;
45011;SDS011;63444;48.148;11.542;2023-08-01T06:10:01;3.60;;;3.30;;
45011;SDS011;63444;48.148;11.542;2023-08-01T06:12:26;4.45;;;3.60;;
45011;SDS011;63444;48.148;11.542;2023-08-01T06:14:52;5.20;;;3.50;;
45011;SDS011;63444;48.148;11.542;2023-08-01T06:17:18;5.33;;;3.60;;
45011;SDS011;63444;48.148;11.542;2023-08-01T06:19:43;4.78;;;3.40;;
45011;SDS011;63444;48.148;11.542;2023-08-01T06:22:09;4.80;;;3.30;;
45011;SDS011;63444;48.148;11.542;2023-08-01T06:24:34;5.20;;;3.40;;
45011;SDS011;63444;48.148;11.542;2023-08-01T06:27:00;5.87;;;3.30;;
45011;SDS011;63444;48.148;11.542;2023-08-01T06:29:25;4.70;;;3.57;;
45011;SDS011;63444;48.148;11.542;2023-08-01T06:31:51;6.22;;;3.30;;
45011;SDS011;63444;48.148;11.542;2023-08-01T06:34:17;4.10;;;3.40;;
45011;SDS011;63444;48.148;11.542;2023-08-01T06:36:42;5.28;;;3.40;;
45011;SDS011;63444;48.148;11.542;2023-08-01T06:39:08;4.10;;;3.27;;
45011;SDS011;63444;48.148;11.542;2023-08-01T06:41:34;5.28;;;3.30;;
45011;SDS011;63444;48.148;11.542;2023-08-01T06:43:59;4.32;;;3.58;;
45011;SDS011;63444;48.148;11.542;2023-08-01T06:46:25;4.88;;;3.35;;
45011;SDS011;63444;48.148;11.542;2023-08-01T06:48:50;6.80;;;3.60;;
45011;SDS011;63444;48.148;11.542;2023-08-01T06:51:16;5.33;;;3.50;;
45011;SDS011;63444;48.148;11.542;2023-08-01T06:53:42;5.55;;;3.58;;
45011;SDS011;63444;48.148;11.542;2023-08-01T06:56:07;4.32;;;3.08;;
45011;SDS011;63444;48.148;11.542;2023-08-01T06:58:33;4.28;;;3.10;;
45011;SDS011;63444;48.148;11.542;2023-08-01T07:00:58;4.75;;;3.20;;
45011;SDS011;63444;48.148;11.542;2023-08-01T07:03:24;3.63;;;2.95;;
45011;SDS011;63444;48.148;11.542;2023-08-01T07:05:49;4.53;;;3.37;;
45011;SDS011;63444;48.148;11.542;2023-08-01T07:08:15;3.40;;;3.00;;
45011;SDS011;63444;48.148;11.542;2023-08-01T07:10:41;3.63;;;2.93;;
45011;SDS011;63444;48.148;11.542;2023-08-01T07:13:06;4.90;;;3.30;;
45011;SDS011;63444;48.148;11.542;2023-08-01T07:15:32;3.67;;;3.23;;
45011;SDS011;63444;48.148;11.542;2023-08-01T07:17:58;5.37;;;3.10;;
45011;SDS011;63444;48.148;11.542;2023-08-01T07:20:23;3.60;;;3.03;;
45011;SDS011;63444;48.148;11.542;2023-08-01T07:22:49;5.88;;;3.33;;
45011;SDS011;63444;48.148;11.542;2023-08-01T07:25:14;2.85;;;2.65;;
45011;SDS011;63444;48.148;11.542;2023-08-01T07:27:41;3.75;;;3.35;;
45011;SDS011;63444;48.148;11.542;2023-08-01T07:30:07;4.88;;;3.03;;
45011;SDS011;63444;48.148;11.542;2023-08-01T07:32:33;3.42;;;3.10;;
45011;SDS011;63444;48.148;11.542;2023-08-01T07:34:59;5.03;;;3.05;;
45011;SDS011;63444;48.148;11.542;2023-08-01T07:37:25;3.20;;;2.90;;
45011;SDS011;63444;48.148;11.542;2023-08-01T07:39:53;5.00;;;3.33;;
45011;SDS011;63444;48.148;11.542;2023-08-01T07:42:19;4.03;;;2.87;;
45011;SDS011;63444;48.148;11.542;2023-08-01T07:44:45;5.90;;;3.07;;
45011;SDS011;63444;48.148;11.542;2023-08-01T07:47:10;5.23;;;3.10;;
45011;SDS011;63444;48.148;11.542;2023-08-01T07:49:36;4.23;;;3.07;;
45011;SDS011;63444;48.148;11.542;2023-08-01T07:52:02;3.60;;;2.80;;
45011;SDS011;63444;48.148;11.542;2023-08-01T07:54:27;4.43;;;2.80;;
45011;SDS011;63444;48.148;11.542;2023-08-01T07:56:53;5.95;;;2.92;;
45011;SDS011;63444;48.148;11.542;2023-08-01T07:59:18;4.90;;;3.10;;
45011;SDS011;63444;48.148;11.542;2023-08-01T08:01:44;5.07;;;2.83;;
45011;SDS011;63444;48.148;11.542;2023-08-01T08:04:09;3.30;;;3.00;;
45011;SDS011;63444;48.148;11.542;2023-08-01T08:06:35;4.37;;;3.20;;
45011;SDS011;63444;48.148;11.542;2023-08-01T08:09:01;3.25;;;2.90;;
45011;SDS011;63444;48.148;11.542;2023-08-01T08:11:28;4.90;;;3.28;;
45011;SDS011;63444;48.148;11.542;2023-08-01T08:13:53;3.45;;;2.90;;
45011;SDS011;63444;48.148;11.542;2023-08-01T08:16:19;5.03;;;2.77;;
45011;SDS011;63444;48.148;11.542;2023-08-01T08:18:44;3.10;;;2.80;;
45011;SDS011;63444;48.148;11.542;2023-08-01T08:21:10;5.75;;;3.10;;
45011;SDS011;63444;48.148;11.542;2023-08-01T08:23:35;4.15;;;3.30;;
45011;SDS011;63444;48.148;11.542;2023-08-01T08:26:01;4.53;;;2.92;;
45011;SDS011;63444;48.148;11.542;2023-08-01T08:28:28;4.35;;;3.20;;
45011;SDS011;63444;48.148;11.542;2023-08-01T08:30:55;3.45;;;2.53;;
45011;SDS011;63444;48.148;11.542;2023-08-01T08:33:21;4.03;;;3.10;;
45011;SDS011;63444;48.148;11.542;2023-08-01T08:35:47;4.40;;;2.65;;
45011;SDS011;63444;48.148;11.542;2023-08-01T08:38:13;4.32;;;2.95;;
45011;SDS011;63444;48.148;11.542;2023-08-01T08:40:40;3.03;;;2.72;;
45011;SDS011;63444;48.148;11.542;2023-08-01T08:43:08;5.43;;;3.10;;
45011;SDS011;63444;48.148;11.542;2023-08-01T08:45:35;3.20;;;2.90;;
45011;SDS011;63444;48.148;11.542;2023-08-01T08:48:10;4.68;;;3.15;;
45011;SDS011;63444;48.148;11.542;2023-08-01T08:50:42;4.68;;;3.10;;
45011;SDS011;63444;48.148;11.542;2023-08-01T08:53:09;3.85;;;2.83;;
45011;SDS011;63444;48.148;11.542;2023-08-01T08:55:38;4.72;;;3.58;;
45011;SDS011;63444;48.148;11.542;2023-08-01T08:58:05;4.35;;;2.83;;
45011;SDS011;63444;48.148;11.542;2023-08-01T09:00:31;3.60;;;2.97;;
45011;SDS011;63444;48.148;11.542;2023-08-01T09:02:57;5.03;;;3.55;;
45011;SDS011;63444;48.148;11.542;2023-08-01T09:05:23;3.80;;;3.10;;
45011;SDS011;63444;48.148;11.542;2023-08-01T09:07:52;3.83;;;3.10;;
45011;SDS011;63444;48.148;11.542;2023-08-01T09:10:21;3.03;;;2.70;;
45011;SDS011;63444;48.148;11.542;2023-08-01T09:12:47;4.50;;;3.15;;
45011;SDS011;63444;48.148;11.542;2023-08-01T09:15:14;3.30;;;2.80;;
45011;SDS011;63444;48.148;11.542;2023-08-01T09:17:49;5.50;;;3.45;;
45011;SDS011;63444;48.148;11.542;2023-08-01T09:20:16;5.72;;;3.30;;
45011;SDS011;63444;48.148;11.542;2023-08-01T09:22:45;3.58;;;2.97;;
45011;SDS011;63444;48.148;11.542;2023-08-01T09:25:12;3.47;;;3.05;;
45011;SDS011;63444;48.148;11.542;2023-08-01T09:27:38;4.18;;;3.20;;
45011;SDS011;63444;48.148;11.542;2023-08-01T09:32:34;4.18;;;3.10;;
45011;SDS011;63444;48.148;11.542;2023-08-01T09:35:00;4.38;;;3.50;;
45011;SDS011;63444;48.148;11.542;2023-08-01T09:37:25;4.00;;;3.10;;
45011;SDS011;63444;48.148;11.542;2023-08-01T09:39:54;5.15;;;3.08;;
45011;SDS011;63444;48.148;11.542;2023-08-01T09:42:20;4.28;;;3.30;;
45011;SDS011;63444;48.148;11.542;2023-08-01T09:44:46;5.30;;;3.33;;
45011;SDS011;63444;48.148;11.542;2023-08-01T09:47:12;4.72;;;3.20;;
45011;SDS011;63444;48.148;11.542;2023-08-01T09:49:46;3.92;;;3.30;;
45011;SDS011;63444;48.148;11.542;2023-08-01T09:52:14;5.03;;;3.20;;
45011;SDS011;63444;48.148;11.542;2023-08-01T09:54:40;5.18;;;3.50;;
45011;SDS011;63444;48.148;11.542;2023-08-01T09:57:06;5.85;;;3.30;;
45011;SDS011;63444;48.148;11.542;2023-08-01T09:59:32;5.80;;;3.25;;
45011;SDS011;63444;48.148;11.542;2023-08-01T10:01:58;5.07;;;3.38;;
45011;SDS011;63444;48.148;11.542;2023-08-01T10:04:31;5.53;;;3.30;;
45011;SDS011;63444;48.148;11.542;2023-08-01T10:07:00;4.85;;;3.38;;
45011;SDS011;63444;48.148;11.542;2023-08-01T10:09:33;7.03;;;3.13;;
45011;SDS011;63444;48.148;11.542;2023-08-01T10:12:00;4.32;;;3.38;;
45011;SDS011;63444;48.148;11.542;2023-08-01T10:14:27;4.30;;;3.20;;
45011;SDS011;63444;48.148;11.542;2023-08-01T10:16:53;4.68;;;3.15;;
45011;SDS011;63444;48.148;11.542;2023-08-01T10:19:19;3.22;;;2.72;;
45011;SDS011;63444;48.148;11.542;2023-08-01T10:21:47;5.35;;;3.30;;
45011;SDS011;63444;48.148;11.542;2023-08-01T10:24:13;3.60;;;3.15;;
45011;SDS011;63444;48.148;11.542;2023-08-01T10:26:40;8.93;;;3.58;;
45011;SDS011;63444;48.148;11.542;2023-08-01T10:29:05;3.67;;;3.20;;
45011;SDS011;63444;48.148;11.542;2023-08-01T10:31:31;5.97;;;3.50;;
45011;SDS011;63444;48.148;11.542;2023-08-01T10:34:12;3.90;;;3.05;;
45011;SDS011;63444;48.148;11.542;2023-08-01T10:36:38;4.03;;;3.05;;
45011;SDS011;63444;48.148;11.542;2023-08-01T10:39:04;4.72;;;3.45;;
45011;SDS011;63444;48.148;11.542;2023-08-01T10:41:31;3.53;;;3.22;;
45011;SDS011;63444;48.148;11.542;2023-08-01T10:44:08;4.53;;;3.55;;
45011;SDS011;63444;48.148;11.542;2023-08-01T10:46:47;3.53;;;3.00;;
45011;SDS011;63444;48.148;11.542;2023-08-01T10:52:19;3.58;;;3.28;;
45011;SDS011;63444;48.148;11.542;2023-08-01T10:54:58;3.30;;;3.00;;
45011;SDS011;63444;48.148;11.542;2023-08-01T10:57:29;4.28;;;3.08;;
45011;SDS011;63444;48.148;11.542;2023-08-01T10:59:59;3.50;;;3.20;;
45011;SDS011;63444;48.148;11.542;2023-08-01T11:02:28;3.50;;;3.20;;
45011;SDS011;63444;48.148;11.542;2023-08-01T11:04:59;3.78;;;2.95;;
45011;SDS011;63444;48.148;11.542;2023-08-01T11:07:26;3.85;;;3.30;;
45011;SDS011;63444;48.148;11.542;2023-08-01T11:12:38;5.65;;;3.05;;
45011;SDS011;63444;48.148;11.542;2023-08-01T11:15:06;4.93;;;2.63;;
45011;SDS011;63444;48.148;11.542;2023-08-01T11:17:34;4.20;;;2.25;;
45011;SDS011;63444;48.148;11.542;2023-08-01T11:20:02;3.60;;;2.25;;
45011;SDS011;63444;48.148;11.542;2023-08-01T11:22:29;3.10;;;2.30;;
45011;SDS011;63444;48.148;11.542;2023-08-01T11:24:54;2.47;;;2.28;;
45011;SDS011;63444;48.148;11.542;2023-08-01T11:27:20;2.85;;;2.00;;
45011;SDS011;63444;48.148;11.542;2023-08-01T11:29:46;2.53;;;2.28;;
45011;SDS011;63444;48.148;11.542;2023-08-01T11:32:11;2.33;;;2.13;;
45011;SDS011;63444;48.148;11.542;2023-08-01T11:34:40;5.00;;;2.10;;
45011;SDS011;63444;48.148;11.542;2023-08-01T11:37:09;2.33;;;2.13;;
45011;SDS011;63444;48.148;11.542;2023-08-01T11:39:35;2.63;;;2.40;;
45011;SDS011;63444;48.148;11.542;2023-08-01T11:42:01;2.72;;;2.45;;
45011;SDS011;63444;48.148;11.542;2023-08-01T11:44:28;2.47;;;2.28;;
45011;SDS011;63444;48.148;11.542;2023-08-01T11:46:54;2.65;;;2.45;;
45011;SDS011;63444;48.148;11.542;2023-08-01T11:49:21;2.47;;;2.28;;
45011;SDS011;63444;48.148;11.542;2023-08-01T11:51:47;2.55;;;2.30;;
45011;SDS011;63444;48.148;11.542;2023-08-01T11:54:13;2.58;;;2.38;;
45011;SDS011;63444;48.148;11.542;2023-08-01T11:56:39;3.67;;;2.53;;
45011;SDS011;63444;48.148;11.542;2023-08-01T12:01:45;3.20;;;2.67;;
45011;SDS011;63444;48.148;11.542;2023-08-01T12:04:11;3.92;;;2.60;;
45011;SDS011;63444;48.148;11.542;2023-08-01T12:06:48;3.63;;;2.72;;
45011;SDS011;63444;48.148;11.542;2023-08-01T12:09:13;3.97;;;2.83;;
45011;SDS011;63444;48.148;11.542;2023-08-01T12:11:39;2.63;;;2.38;;
45011;SDS011;63444;48.148;11.542;2023-08-01T12:14:08;2.67;;;2.47;;
45011;SDS011;63444;48.148;11.542;2023-08-01T12:16:39;2.95;;;2.65;;
45011;SDS011;63444;48.148;11.542;2023-08-01T12:19:20;2.67;;;2.47;;
45011;SDS011;63444;48.148;11.542;2023-08-01T12:21:46;2.92;;;2.70;;
45011;SDS011;63444;48.148;11.542;2023-08-01T12:24:12;2.80;;;2.42;;
45011;SDS011;63444;48.148;11.542;2023-08-01T12:26:38;2.72;;;2.25;;
45011;SDS011;63444;48.148;11.542;2023-08-01T12:29:03;2.70;;;2.40;;
45011;SDS011;63444;48.148;11.542;2023-08-01T12:31:29;2.58;;;2.35;;
45011;SDS011;63444;48.148;11.542;2023-08-01T12:33:54;2.40;;;2.20;;
45011;SDS011;63444;48.148;11.542;2023-08-01T12:36:20;2.95;;;2.40;;
45011;SDS011;63444;48.148;11.542;2023-08-01T12:38:46;2.20;;;2.00;;
45011;SDS011;63444;48.148;11.542;2023-08-01T12:41:12;2.50;;;2.30;;
45011;SDS011;63444;48.148;11.542;2023-08-01T12:43:37;2.63;;;2.33;;
45011;SDS011;63444;48.148;11.542;2023-08-01T12:46:03;2.75;;;2.20;;
45011;SDS011;63444;48.148;11.542;2023-08-01T12:48:29;2.38;;;2.10;;
45011;SDS011;63444;48.148;11.542;2023-08-01T12:50:55;2.45;;;2.15;;
45011;SDS011;63444;48.148;11.542;2023-08-01T12:53:21;3.90;;;2.15;;
45011;SDS011;63444;48.148;11.542;2023-08-01T12:55:47;2.20;;;2.00;;
45011;SDS011;63444;48.148;11.542;2023-08-01T12:58:14;2.35;;;2.08;;
45011;SDS011;63444;48.148;11.542;2023-08-01T13:00:40;2.28;;;2.08;;
45011;SDS011;63444;48.148;11.542;2023-08-01T13:03:07;2.40;;;2.20;;
45011;SDS011;63444;48.148;11.542;2023-08-01T13:05:36;2.78;;;2.10;;
45011;SDS011;63444;48.148;11.542;2023-08-01T13:08:03;2.65;;;2.30;;
45011;SDS011;63444;48.148;11.542;2023-08-01T13:10:30;2.60;;;2.40;;
45011;SDS011;63444;48.148;11.542;2023-08-01T13:12:56;2.75;;;2.25;;
45011;SDS011;63444;48.148;11.542;2023-08-01T13:15:23;3.03;;;2.10;;
45011;SDS011;63444;48.148;11.542;2023-08-01T13:17:49;3.20;;;2.10;;
45011;SDS011;63444;48.148;11.542;2023-08-01T13:20:15;2.50;;;2.30;;
45011;SDS011;63444;48.148;11.542;2023-08-01T13:22:40;2.35;;;2.15;;
45011;SDS011;63444;48.148;11.542;2023-08-01T13:25:06;2.75;;;2.22;;
45011;SDS011;63444;48.148;11.542;2023-08-01T13:27:34;4.80;;;2.58;;
45011;SDS011;63444;48.148;11.542;2023-08-01T13:30:00;2.35;;;2.10;;
45011;SDS011;63444;48.148;11.542;2023-08-01T13:32:26;2.72;;;2.30;;
45011;SDS011;63444;48.148;11.542;2023-08-01T13:34:52;3.55;;;2.45;;
45011;SDS011;63444;48.148;11.542;2023-08-01T13:37:18;3.63;;;2.20;;
45011;SDS011;63444;48.148;11.542;2023-08-01T13:39:43;4.68;;;2.78;;
45011;SDS011;63444;48.148;11.542;2023-08-01T13:42:10;2.60;;;2.28;;
45011;SDS011;63444;48.148;11.542;2023-08-01T13:44:37;2.55;;;2.10;;
45011;SDS011;63444;48.148;11.542;2023-08-01T13:47:02;3.88;;;2.45;;
45011;SDS011;63444;48.148;11.542;2023-08-01T13:49:28;2.35;;;2.15;;
45011;SDS011;63444;48.148;11.542;2023-08-01T13:51:54;2.88;;;2.28;;
45011;SDS011;63444;48.148;11.542;2023-08-01T13:54:20;2.95;;;2.20;;
45011;SDS011;63444;48.148;11.542;2023-08-01T13:56:45;2.35;;;1.95;;
45011;SDS011;63444;48.148;11.542;2023-08-01T13:59:11;2.15;;;2.03;;
45011;SDS011;63444;48.148;11.542;2023-08-01T14:01:36;2.80;;;2.30;;
45011;SDS011;63444;48.148;11.542;2023-08-01T14:04:03;2.50;;;2.20;;
45011;SDS011;63444;48.148;11.542;2023-08-01T14:06:29;2.78;;;2.40;;
45011;SDS011;63444;48.148;11.542;2023-08-01T14:08:55;3.15;;;2.35;;
45011;SDS011;63444;48.148;11.542;2023-08-01T14:11:20;3.55;;;2.28;;
45011;SDS011;63444;48.148;11.542;2023-08-01T14:13:46;3.42;;;2.70;;
45011;SDS011;63444;48.148;11.542;2023-08-01T14:16:12;5.30;;;3.00;;
45011;SDS011;63444;48.148;11.542;2023-08-01T14:18:37;4.88;;;2.53;;
45011;SDS011;63444;48.148;11.542;2023-08-01T14:21:03;6.60;;;2.90;;
45011;SDS011;63444;48.148;11.542;2023-08-01T14:23:30;3.95;;;2.65;;
45011;SDS011;63444;48.148;11.542;2023-08-01T14:25:57;3.83;;;2.40;;
45011;SDS011;63444;48.148;11.542;2023-08-01T14:28:23;3.25;;;2.53;;
45011;SDS011;63444;48.148;11.542;2023-08-01T14:30:48;2.88;;;2.60;;
45011;SDS011;63444;48.148;11.542;2023-08-01T14:33:14;3.35;;;2.30;;
45011;SDS011;63444;48.148;11.542;2023-08-01T14:35:40;1.95;;;1.75;;
45011;SDS011;63444;48.148;11.542;2023-08-01T14:38:05;1.77;;;1.60;;